Portada
METAR-TAF:

METAR-TAF

Aeropuertos :

Bou Saâda, Argelia

latitud: 35-20N, longitud: 004-12E, altitud: 461 m

Observación

El informe se hizo hace 10 horas y 31 minutos, a las 18:00 UTC
Viento 6 kt del oeste
Temperatura 40°C
Humedad 9%
Presión 1009 hPa
Visibilidad: 6000 m
Escasas nubes a una altura de 3000 ft

METAR: DAAD 201800Z 26006KT 6000 FEW030 40/01 Q1009

Hora: 05:31 (04:31 UTC)

Pronóstico

El informe se hizo hace 11 horas y 31 minutos, a las 17:00 UTC
Pronóstico válido del 20 a las 18 UTC al 21 a las 03 UTC
Viento 12 kt del oeste-noroeste
Visibilidad: 6000 m
Nubes dispersas a una altura de 3000 ft
Nubes dispersas a una altura de 10000 ft
Probabilidad 40% :
Temporalmente
del 20 a las 18 UTC al 20 a las 21 UTC
Escasas nubes a una altura de 3000 ft, Cumulonimbus.
tormenta

TAF: DAAD 201700Z 2018/2103 30012KT 6000 SCT030 SCT100 PROB40 TEMPO 2018/2021 TS FEW030CB

Observaciones y pronósticos meteorológicos de más de 4000 aeropuertos (mensajes METAR y TAF).

Los puntos amarillos y rojos representan las estaciones disponibles.

Ponga el ratón en el punto deseado para ver el nombre de la estación.

Haga clic para ver las observaciones y los pronósticos meteorológicos.

Para cambiar el mapa : haga clic en los botones verdes con una cruz de color negro para hacer un zoom, en el botón verde con un guión para alejar o en las flechas verdes para mapas adyacentes.


METAR-TAF: